Terminal Aerodrome Forecast
Issued by NWS

Home | Current Version | Previous Version | Text Only | Print | Product List | Glossary On
Versions: 1 2 3 4 5 6 7 8 9 10 11 12 13 14 15 16 17 18 19 20 21 22
000
FTUS43 KMQT 301259 AAA
TAFIWD
TAF AMD
KIWD 301259Z 3013/3112 01009KT 5SM -DZ BR BKN012
      TEMPO 3013/3015 5SM -DZ BR BKN005
     FM301500 01010G15KT 6SM -DZ BR SCT012 BKN020
     FM301700 01010G15KT P6SM FEW025
     FM310000 05006KT P6SM SKC
     FM310500 00000KT P6SM SKC
      AMD LTD TO CLD VIS AND WIND=

USA.gov is the U.S. government's official web portal to all federal, state and local government web resources and services.